Archival Weather

Tokyo Intl

Tokyo, Japan (RJTT)

Report from: Tuesday, November 21, 2023 8:00 PM JST
Current time: Saturday, February 24, 2024 11:48 PM JST

Current weather – Weather history – Daily summaries
Weather forecast

Temperature16.0°C (60.8°F)
Dew point11.0°C (51.8°F)
Winds 3 kts (1.5 m/s, 3.5 mph) Vrb
Winds variableWinds variable from South-Southwest (200°) to North (10°)
Visibility6.2 mi. (10 km)
Clouds Scattered clouds 3,500 ft. (1,067 m)
Ceiling: Broken clouds 5,000 ft. (1,524 m)
Altimeter30.15 in.Hg (1021 mB)
Relative humidity72 %
Density altitude42 ft. (13 m)
Remarks No significant changes expected in the next two hours
Flight conditions Visual Meteorological Conditions
Raw dataRJTT 211100Z 23003KT 200V010 9999 SCT035 BKN050 16/11 Q1021 NOSIG RMK 3SC035 7SC050 A3016
An error has occurred. This application may no longer respond until reloaded. Reload 🗙